sensor_id;sensor_type;location;lat;lon;timestamp;pressure;altitude;pressure_sealevel;temperature;humidity
38227;BME280;24026;49.446;8.576;2023-01-31T00:00:31;101480.78;;;11.52;45.02
38227;BME280;24026;49.446;8.576;2023-01-31T00:02:52;101476.03;;;11.54;45.01
38227;BME280;24026;49.446;8.576;2023-01-31T00:05:12;101480.34;;;11.55;44.94
38227;BME280;24026;49.446;8.576;2023-01-31T00:07:33;101480.72;;;11.59;44.81
38227;BME280;24026;49.446;8.576;2023-01-31T00:09:54;101476.44;;;11.58;44.71
38227;BME280;24026;49.446;8.576;2023-01-31T00:12:15;101478.28;;;11.57;44.81
38227;BME280;24026;49.446;8.576;2023-01-31T00:14:36;101483.59;;;11.57;44.84
38227;BME280;24026;49.446;8.576;2023-01-31T00:16:57;101478.03;;;11.59;44.98
38227;BME280;24026;49.446;8.576;2023-01-31T00:19:17;101481.50;;;11.59;44.89
38227;BME280;24026;49.446;8.576;2023-01-31T00:21:39;101478.03;;;11.59;44.97
38227;BME280;24026;49.446;8.576;2023-01-31T00:24:02;101483.81;;;11.56;44.81
38227;BME280;24026;49.446;8.576;2023-01-31T00:26:33;101491.00;;;11.55;44.46
38227;BME280;24026;49.446;8.576;2023-01-31T00:28:54;101489.97;;;11.56;44.80
38227;BME280;24026;49.446;8.576;2023-01-31T00:31:17;101483.81;;;11.56;44.81
38227;BME280;24026;49.446;8.576;2023-01-31T00:33:40;101479.31;;;11.56;44.54
38227;BME280;24026;49.446;8.576;2023-01-31T00:36:03;101482.78;;;11.57;44.94
38227;BME280;24026;49.446;8.576;2023-01-31T00:38:24;101485.66;;;11.55;44.73
38227;BME280;24026;49.446;8.576;2023-01-31T00:40:52;101478.47;;;11.56;44.52
38227;BME280;24026;49.446;8.576;2023-01-31T00:43:12;101483.72;;;11.44;45.04
38227;BME280;24026;49.446;8.576;2023-01-31T00:45:34;101485.75;;;11.48;45.10
38227;BME280;24026;49.446;8.576;2023-01-31T00:47:54;101490.25;;;11.48;44.94
38227;BME280;24026;49.446;8.576;2023-01-31T00:50:15;101484.09;;;11.47;45.15
38227;BME280;24026;49.446;8.576;2023-01-31T00:52:35;101482.28;;;11.48;44.93
38227;BME280;24026;49.446;8.576;2023-01-31T00:54:57;101472.44;;;11.48;44.98
38227;BME280;24026;49.446;8.576;2023-01-31T00:57:19;101464.66;;;11.47;45.00
38227;BME280;24026;49.446;8.576;2023-01-31T00:59:40;101467.09;;;11.48;45.05
38227;BME280;24026;49.446;8.576;2023-01-31T01:02:00;101465.47;;;11.47;44.97
38227;BME280;24026;49.446;8.576;2023-01-31T01:04:21;101476.31;;;11.46;44.84
38227;BME280;24026;49.446;8.576;2023-01-31T01:06:41;101467.97;;;11.42;44.76
38227;BME280;24026;49.446;8.576;2023-01-31T01:09:02;101470.41;;;11.44;44.83
38227;BME280;24026;49.446;8.576;2023-01-31T01:11:30;101472.06;;;11.45;44.91
38227;BME280;24026;49.446;8.576;2023-01-31T01:13:51;101476.31;;;11.46;45.08
38227;BME280;24026;49.446;8.576;2023-01-31T01:16:17;101478.19;;;11.45;45.07
38227;BME280;24026;49.446;8.576;2023-01-31T01:18:39;101477.16;;;11.46;45.07
38227;BME280;24026;49.446;8.576;2023-01-31T01:21:17;101480.25;;;11.43;44.89
38227;BME280;24026;49.446;8.576;2023-01-31T01:23:39;101477.00;;;11.41;45.04
38227;BME280;24026;49.446;8.576;2023-01-31T01:26:00;101481.28;;;11.42;45.06
38227;BME280;24026;49.446;8.576;2023-01-31T01:28:20;101487.88;;;11.40;45.03
38227;BME280;24026;49.446;8.576;2023-01-31T01:30:42;101482.34;;;11.41;45.01
38227;BME280;24026;49.446;8.576;2023-01-31T01:33:03;101478.25;;;11.39;45.08
38227;BME280;24026;49.446;8.576;2023-01-31T01:35:23;101483.56;;;11.39;44.92
38227;BME280;24026;49.446;8.576;2023-01-31T01:37:45;101485.66;;;11.37;44.94
38227;BME280;24026;49.446;8.576;2023-01-31T01:40:06;101483.00;;;11.37;45.14
38227;BME280;24026;49.446;8.576;2023-01-31T01:42:33;101487.28;;;11.38;45.06
38227;BME280;24026;49.446;8.576;2023-01-31T01:44:57;101495.72;;;11.35;45.29
38227;BME280;24026;49.446;8.576;2023-01-31T01:47:37;101495.09;;;11.32;45.30
38227;BME280;24026;49.446;8.576;2023-01-31T01:50:20;101496.38;;;11.30;45.21
38227;BME280;24026;49.446;8.576;2023-01-31T01:52:54;101501.25;;;11.33;45.08
38227;BME280;24026;49.446;8.576;2023-01-31T01:58:07;101505.75;;;11.32;44.94
38227;BME280;24026;49.446;8.576;2023-01-31T02:00:29;101511.91;;;11.33;45.16
38227;BME280;24026;49.446;8.576;2023-01-31T02:02:55;101512.13;;;11.31;45.30
38227;BME280;24026;49.446;8.576;2023-01-31T02:05:23;101508.88;;;11.29;45.11
38227;BME280;24026;49.446;8.576;2023-01-31T02:07:45;101513.97;;;11.31;45.28
38227;BME280;24026;49.446;8.576;2023-01-31T02:10:22;101519.50;;;11.29;45.24
38227;BME280;24026;49.446;8.576;2023-01-31T02:12:44;101520.31;;;11.30;45.16
38227;BME280;24026;49.446;8.576;2023-01-31T02:15:07;101514.19;;;11.29;45.11
38227;BME280;24026;49.446;8.576;2023-01-31T02:17:29;101511.75;;;11.28;45.30
38227;BME280;24026;49.446;8.576;2023-01-31T02:28:31;101511.13;;;11.26;45.06
38227;BME280;24026;49.446;8.576;2023-01-31T02:33:56;101509.50;;;11.25;45.15
38227;BME280;24026;49.446;8.576;2023-01-31T02:39:21;101509.72;;;11.23;45.32
38227;BME280;24026;49.446;8.576;2023-01-31T02:42:06;101501.00;;;11.16;45.19
38227;BME280;24026;49.446;8.576;2023-01-31T02:44:37;101508.31;;;11.21;45.25
38227;BME280;24026;49.446;8.576;2023-01-31T02:52:52;101506.91;;;11.18;45.35
38227;BME280;24026;49.446;8.576;2023-01-31T02:58:12;101496.28;;;11.18;45.37
38227;BME280;24026;49.446;8.576;2023-01-31T03:00:38;101496.47;;;11.17;45.28
38227;BME280;24026;49.446;8.576;2023-01-31T03:03:04;101499.72;;;11.19;45.29
38227;BME280;24026;49.446;8.576;2023-01-31T03:05:27;101493.81;;;11.17;45.25
38227;BME280;24026;49.446;8.576;2023-01-31T03:07:51;101505.06;;;11.19;45.37
38227;BME280;24026;49.446;8.576;2023-01-31T03:18:17;101494.25;;;11.13;45.27
38227;BME280;24026;49.446;8.576;2023-01-31T03:20:52;101492.63;;;11.12;45.07
38227;BME280;24026;49.446;8.576;2023-01-31T03:23:17;101491.59;;;11.13;45.43
38227;BME280;24026;49.446;8.576;2023-01-31T03:25:39;101498.56;;;11.15;45.16
38227;BME280;24026;49.446;8.576;2023-01-31T03:28:03;101504.09;;;11.13;45.25
38227;BME280;24026;49.446;8.576;2023-01-31T03:30:36;101502.88;;;11.09;45.39
38227;BME280;24026;49.446;8.576;2023-01-31T03:33:05;101502.88;;;11.09;45.12
38227;BME280;24026;49.446;8.576;2023-01-31T03:35:29;101504.38;;;11.05;45.64
38227;BME280;24026;49.446;8.576;2023-01-31T03:38:19;101509.09;;;11.03;45.32
38227;BME280;24026;49.446;8.576;2023-01-31T03:40:45;101511.69;;;11.09;45.20
38227;BME280;24026;49.446;8.576;2023-01-31T03:43:14;101512.34;;;11.05;45.19
38227;BME280;24026;49.446;8.576;2023-01-31T03:45:49;101506.81;;;11.06;45.38
38227;BME280;24026;49.446;8.576;2023-01-31T03:48:13;101520.31;;;11.05;45.20
38227;BME280;24026;49.446;8.576;2023-01-31T03:50:43;101520.13;;;11.06;45.29
38227;BME280;24026;49.446;8.576;2023-01-31T03:53:18;101527.72;;;11.03;45.43
38227;BME280;24026;49.446;8.576;2023-01-31T03:56:03;101521.59;;;10.96;45.38
38227;BME280;24026;49.446;8.576;2023-01-31T03:58:35;101529.97;;;10.99;45.04
38227;BME280;24026;49.446;8.576;2023-01-31T04:01:01;101526.50;;;10.99;45.15
38227;BME280;24026;49.446;8.576;2023-01-31T04:03:34;101526.13;;;10.95;45.15
38227;BME280;24026;49.446;8.576;2023-01-31T04:05:55;101532.03;;;10.97;45.40
38227;BME280;24026;49.446;8.576;2023-01-31T04:08:15;101531.22;;;10.97;45.16
38227;BME280;24026;49.446;8.576;2023-01-31T04:10:37;101535.97;;;10.94;45.15
38227;BME280;24026;49.446;8.576;2023-01-31T04:12:58;101539.44;;;10.95;45.42
38227;BME280;24026;49.446;8.576;2023-01-31T04:15:18;101534.09;;;10.95;45.19
38227;BME280;24026;49.446;8.576;2023-01-31T04:17:39;101538.63;;;10.94;45.17
38227;BME280;24026;49.446;8.576;2023-01-31T04:20:00;101535.34;;;10.92;45.28
38227;BME280;24026;49.446;8.576;2023-01-31T04:22:20;101546.81;;;10.93;45.16
38227;BME280;24026;49.446;8.576;2023-01-31T04:24:42;101540.66;;;10.92;45.15
38227;BME280;24026;49.446;8.576;2023-01-31T04:27:04;101539.03;;;10.91;45.25
38227;BME280;24026;49.446;8.576;2023-01-31T04:29:25;101539.03;;;10.91;45.23
38227;BME280;24026;49.446;8.576;2023-01-31T04:31:47;101536.81;;;10.88;45.19
38227;BME280;24026;49.446;8.576;2023-01-31T04:34:07;101543.78;;;10.89;45.31
38227;BME280;24026;49.446;8.576;2023-01-31T04:36:28;101540.28;;;10.89;45.14
38227;BME280;24026;49.446;8.576;2023-01-31T04:38:48;101545.81;;;10.87;45.10
38227;BME280;24026;49.446;8.576;2023-01-31T04:41:09;101543.38;;;10.86;45.17
38227;BME280;24026;49.446;8.576;2023-01-31T04:43:29;101533.56;;;10.86;45.20
38227;BME280;24026;49.446;8.576;2023-01-31T04:45:52;101530.06;;;10.86;45.12
38227;BME280;24026;49.446;8.576;2023-01-31T04:48:14;101530.31;;;10.84;45.20
38227;BME280;24026;49.446;8.576;2023-01-31T04:50:34;101529.69;;;10.82;45.30
38227;BME280;24026;49.446;8.576;2023-01-31T04:52:54;101531.97;;;10.79;45.23
38227;BME280;24026;49.446;8.576;2023-01-31T04:55:15;101525.03;;;10.78;45.19
38227;BME280;24026;49.446;8.576;2023-01-31T04:57:37;101532.78;;;10.79;45.09
38227;BME280;24026;49.446;8.576;2023-01-31T04:59:57;101526.59;;;10.85;45.06
38227;BME280;24026;49.446;8.576;2023-01-31T05:02:17;101527.97;;;10.94;44.94
38227;BME280;24026;49.446;8.576;2023-01-31T05:04:38;101520.31;;;11.05;44.26
38227;BME280;24026;49.446;8.576;2023-01-31T05:07:00;101517.34;;;11.20;44.20
38227;BME280;24026;49.446;8.576;2023-01-31T05:09:21;101521.06;;;11.37;43.92
38227;BME280;24026;49.446;8.576;2023-01-31T05:11:41;101521.09;;;11.56;43.41
38227;BME280;24026;49.446;8.576;2023-01-31T05:14:03;101520.94;;;11.69;43.20
38227;BME280;24026;49.446;8.576;2023-01-31T05:16:24;101521.16;;;11.86;42.58
38227;BME280;24026;49.446;8.576;2023-01-31T05:18:44;101524.78;;;11.98;42.37
38227;BME280;24026;49.446;8.576;2023-01-31T05:21:05;101524.38;;;12.13;42.15
38227;BME280;24026;49.446;8.576;2023-01-31T05:23:26;101518.53;;;12.23;41.65
38227;BME280;24026;49.446;8.576;2023-01-31T05:25:48;101518.81;;;12.33;41.52
38227;BME280;24026;49.446;8.576;2023-01-31T05:28:10;101524.53;;;12.49;41.25
38227;BME280;24026;49.446;8.576;2023-01-31T05:30:31;101525.25;;;12.56;40.89
38227;BME280;24026;49.446;8.576;2023-01-31T05:32:51;101516.69;;;12.66;40.95
38227;BME280;24026;49.446;8.576;2023-01-31T05:35:12;101518.47;;;12.72;40.74
38227;BME280;24026;49.446;8.576;2023-01-31T05:37:32;101507.00;;;12.83;40.61
38227;BME280;24026;49.446;8.576;2023-01-31T05:39:53;101513.63;;;12.92;40.37
38227;BME280;24026;49.446;8.576;2023-01-31T05:42:14;101517.81;;;13.00;40.08
38227;BME280;24026;49.446;8.576;2023-01-31T05:44:34;101513.19;;;13.07;40.23
38227;BME280;24026;49.446;8.576;2023-01-31T05:46:55;101524.09;;;13.18;40.00
38227;BME280;24026;49.446;8.576;2023-01-31T05:49:15;101524.22;;;13.23;39.42
38227;BME280;24026;49.446;8.576;2023-01-31T05:51:36;101516.69;;;13.31;39.59
38227;BME280;24026;49.446;8.576;2023-01-31T05:53:56;101524.63;;;13.38;39.43
38227;BME280;24026;49.446;8.576;2023-01-31T05:56:17;101522.63;;;13.45;39.29
38227;BME280;24026;49.446;8.576;2023-01-31T05:58:37;101517.97;;;13.52;39.18
38227;BME280;24026;49.446;8.576;2023-01-31T06:00:59;101518.66;;;13.60;38.88
38227;BME280;24026;49.446;8.576;2023-01-31T06:03:20;101514.03;;;13.67;39.08
38227;BME280;24026;49.446;8.576;2023-01-31T06:05:41;101522.94;;;13.73;38.82
38227;BME280;24026;49.446;8.576;2023-01-31T06:08:02;101515.38;;;13.81;38.78
38227;BME280;24026;49.446;8.576;2023-01-31T06:10:22;101520.69;;;13.93;38.88
38227;BME280;24026;49.446;8.576;2023-01-31T06:12:43;101527.78;;;13.99;38.71
38227;BME280;24026;49.446;8.576;2023-01-31T06:15:05;101521.16;;;14.02;39.00
38227;BME280;24026;49.446;8.576;2023-01-31T06:17:26;101534.72;;;14.12;38.91
38227;BME280;24026;49.446;8.576;2023-01-31T06:19:47;101537.59;;;14.22;38.76
38227;BME280;24026;49.446;8.576;2023-01-31T06:22:08;101533.22;;;14.33;38.68
38227;BME280;24026;49.446;8.576;2023-01-31T06:24:30;101538.72;;;14.38;38.47
38227;BME280;24026;49.446;8.576;2023-01-31T06:26:51;101540.16;;;14.46;38.12
38227;BME280;24026;49.446;8.576;2023-01-31T06:29:11;101530.13;;;14.53;38.28
38227;BME280;24026;49.446;8.576;2023-01-31T06:31:32;101532.09;;;14.58;38.35
38227;BME280;24026;49.446;8.576;2023-01-31T06:33:52;101534.97;;;14.68;38.19
38227;BME280;24026;49.446;8.576;2023-01-31T06:36:15;101532.72;;;14.77;38.20
38227;BME280;24026;49.446;8.576;2023-01-31T06:38:37;101544.66;;;14.86;37.91
38227;BME280;24026;49.446;8.576;2023-01-31T06:40:58;101533.78;;;14.93;37.77
38227;BME280;24026;49.446;8.576;2023-01-31T06:43:18;101538.66;;;14.96;37.67
38227;BME280;24026;49.446;8.576;2023-01-31T06:45:41;101534.53;;;15.05;37.76
38227;BME280;24026;49.446;8.576;2023-01-31T06:48:04;101534.94;;;15.14;37.45
38227;BME280;24026;49.446;8.576;2023-01-31T06:50:24;101544.66;;;15.20;37.31
38227;BME280;24026;49.446;8.576;2023-01-31T06:52:48;101540.19;;;15.26;37.29
38227;BME280;24026;49.446;8.576;2023-01-31T06:55:08;101538.88;;;15.28;37.21
38227;BME280;24026;49.446;8.576;2023-01-31T06:57:29;101536.09;;;15.40;36.81
38227;BME280;24026;49.446;8.576;2023-01-31T06:59:49;101536.44;;;15.27;37.02
38227;BME280;24026;49.446;8.576;2023-01-31T07:02:11;101542.38;;;15.46;36.80
38227;BME280;24026;49.446;8.576;2023-01-31T07:04:32;101546.81;;;15.57;36.67
38227;BME280;24026;49.446;8.576;2023-01-31T07:06:53;101546.41;;;15.65;36.31
38227;BME280;24026;49.446;8.576;2023-01-31T07:09:14;101542.16;;;15.69;36.50
38227;BME280;24026;49.446;8.576;2023-01-31T07:11:36;101555.72;;;15.80;36.15
38227;BME280;24026;49.446;8.576;2023-01-31T07:13:57;101555.53;;;15.86;36.59
38227;BME280;24026;49.446;8.576;2023-01-31T07:16:18;101562.03;;;15.90;36.31
38227;BME280;24026;49.446;8.576;2023-01-31T07:18:38;101573.13;;;15.99;36.18
38227;BME280;24026;49.446;8.576;2023-01-31T07:20:59;101571.50;;;15.98;36.19
38227;BME280;24026;49.446;8.576;2023-01-31T07:23:19;101564.59;;;16.02;36.24
38227;BME280;24026;49.446;8.576;2023-01-31T07:25:41;101567.88;;;16.09;35.83
38227;BME280;24026;49.446;8.576;2023-01-31T07:28:03;101572.31;;;16.21;35.51
38227;BME280;24026;49.446;8.576;2023-01-31T07:30:25;101571.00;;;16.23;35.72
38227;BME280;24026;49.446;8.576;2023-01-31T07:32:46;101577.00;;;16.30;35.54
38227;BME280;24026;49.446;8.576;2023-01-31T07:35:07;101586.16;;;16.35;35.73
38227;BME280;24026;49.446;8.576;2023-01-31T07:37:28;101581.63;;;16.40;35.65
38227;BME280;24026;49.446;8.576;2023-01-31T07:39:49;101597.28;;;16.48;35.58
38227;BME280;24026;49.446;8.576;2023-01-31T07:42:09;101600.28;;;16.52;35.56
38227;BME280;24026;49.446;8.576;2023-01-31T07:44:30;101601.72;;;16.60;35.57
38227;BME280;24026;49.446;8.576;2023-01-31T07:46:52;101600.88;;;16.54;35.23
38227;BME280;24026;49.446;8.576;2023-01-31T07:49:15;101609.31;;;16.41;35.46
38227;BME280;24026;49.446;8.576;2023-01-31T07:51:35;101607.31;;;16.31;35.37
38227;BME280;24026;49.446;8.576;2023-01-31T07:53:57;101602.75;;;16.09;35.91
38227;BME280;24026;49.446;8.576;2023-01-31T07:56:20;101600.84;;;15.88;36.00
38227;BME280;24026;49.446;8.576;2023-01-31T07:58:43;101598.84;;;15.78;36.12
38227;BME280;24026;49.446;8.576;2023-01-31T08:01:06;101599.88;;;15.60;36.51
38227;BME280;24026;49.446;8.576;2023-01-31T08:03:46;101592.34;;;15.40;36.48
38227;BME280;24026;49.446;8.576;2023-01-31T08:06:10;101592.78;;;15.32;36.90
38227;BME280;24026;49.446;8.576;2023-01-31T08:08:32;101595.88;;;15.24;36.76
38227;BME280;24026;49.446;8.576;2023-01-31T08:10:53;101596.53;;;15.14;37.05
38227;BME280;24026;49.446;8.576;2023-01-31T08:13:15;101596.28;;;15.32;36.57
38227;BME280;24026;49.446;8.576;2023-01-31T08:15:35;101596.13;;;15.39;36.35
38227;BME280;24026;49.446;8.576;2023-01-31T08:17:56;101605.59;;;15.47;36.40
38227;BME280;24026;49.446;8.576;2023-01-31T08:20:16;101602.41;;;15.50;36.57
38227;BME280;24026;49.446;8.576;2023-01-31T08:22:39;101601.53;;;15.61;36.23
38227;BME280;24026;49.446;8.576;2023-01-31T08:25:00;101608.66;;;15.72;36.16
38227;BME280;24026;49.446;8.576;2023-01-31T08:27:21;101604.03;;;15.85;35.94
38227;BME280;24026;49.446;8.576;2023-01-31T08:29:42;101597.00;;;16.01;36.14
38227;BME280;24026;49.446;8.576;2023-01-31T08:32:02;101602.00;;;16.14;35.62
38227;BME280;24026;49.446;8.576;2023-01-31T08:34:23;101602.13;;;16.24;35.45
38227;BME280;24026;49.446;8.576;2023-01-31T08:36:44;101598.00;;;16.39;35.37
38227;BME280;24026;49.446;8.576;2023-01-31T08:39:05;101592.75;;;16.49;35.33
38227;BME280;24026;49.446;8.576;2023-01-31T08:41:28;101592.56;;;16.56;34.91
38227;BME280;24026;49.446;8.576;2023-01-31T08:43:49;101592.31;;;16.57;35.26
38227;BME280;24026;49.446;8.576;2023-01-31T08:46:09;101588.03;;;16.61;35.04
38227;BME280;24026;49.446;8.576;2023-01-31T08:48:32;101590.38;;;16.80;34.63
38227;BME280;24026;49.446;8.576;2023-01-31T08:50:53;101588.66;;;16.91;34.79
38227;BME280;24026;49.446;8.576;2023-01-31T08:53:13;101590.78;;;16.94;34.52
38227;BME280;24026;49.446;8.576;2023-01-31T08:55:35;101590.91;;;17.04;34.38
38227;BME280;24026;49.446;8.576;2023-01-31T08:57:57;101595.19;;;17.05;34.42
38227;BME280;24026;49.446;8.576;2023-01-31T09:00:18;101597.41;;;17.13;34.14
38227;BME280;24026;49.446;8.576;2023-01-31T09:02:39;101585.56;;;17.09;34.52
38227;BME280;24026;49.446;8.576;2023-01-31T09:04:59;101592.75;;;17.03;34.41
38227;BME280;24026;49.446;8.576;2023-01-31T09:07:21;101588.06;;;16.89;34.51
38227;BME280;24026;49.446;8.576;2023-01-31T09:09:41;101590.88;;;16.77;34.85
38227;BME280;24026;49.446;8.576;2023-01-31T09:12:03;101588.53;;;16.58;34.95
38227;BME280;24026;49.446;8.576;2023-01-31T09:14:25;101590.72;;;16.34;35.36
38227;BME280;24026;49.446;8.576;2023-01-31T09:16:47;101597.31;;;16.26;35.60
38227;BME280;24026;49.446;8.576;2023-01-31T09:19:07;101595.13;;;16.23;35.65
38227;BME280;24026;49.446;8.576;2023-01-31T09:21:29;101592.03;;;16.09;35.73
38227;BME280;24026;49.446;8.576;2023-01-31T09:23:55;101595.44;;;16.05;35.85
38227;BME280;24026;49.446;8.576;2023-01-31T09:26:15;101591.91;;;15.99;35.91
38227;BME280;24026;49.446;8.576;2023-01-31T09:28:36;101596.59;;;15.92;36.01
38227;BME280;24026;49.446;8.576;2023-01-31T09:31:04;101603.53;;;15.88;35.84
38227;BME280;24026;49.446;8.576;2023-01-31T09:33:25;101605.25;;;15.94;36.02
38227;BME280;24026;49.446;8.576;2023-01-31T09:35:58;101599.28;;;15.92;35.74
38227;BME280;24026;49.446;8.576;2023-01-31T09:38:19;101594.34;;;16.01;35.78
38227;BME280;24026;49.446;8.576;2023-01-31T09:40:40;101581.78;;;16.06;35.59
38227;BME280;24026;49.446;8.576;2023-01-31T09:43:01;101569.53;;;16.10;35.83
38227;BME280;24026;49.446;8.576;2023-01-31T09:45:29;101578.19;;;16.18;35.75
38227;BME280;24026;49.446;8.576;2023-01-31T09:47:53;101563.59;;;16.30;35.79
38227;BME280;24026;49.446;8.576;2023-01-31T09:50:19;101562.81;;;16.35;35.49
38227;BME280;24026;49.446;8.576;2023-01-31T09:52:41;101566.19;;;16.47;35.50
38227;BME280;24026;49.446;8.576;2023-01-31T09:55:01;101572.19;;;16.60;35.27
38227;BME280;24026;49.446;8.576;2023-01-31T09:57:28;101576.34;;;16.73;35.12
38227;BME280;24026;49.446;8.576;2023-01-31T10:00:14;101577.25;;;16.83;35.11
38227;BME280;24026;49.446;8.576;2023-01-31T10:05:19;101571.50;;;16.97;34.83
38227;BME280;24026;49.446;8.576;2023-01-31T10:08:35;101579.94;;;17.11;34.63
38227;BME280;24026;49.446;8.576;2023-01-31T10:12:57;101574.22;;;17.34;34.25
38227;BME280;24026;49.446;8.576;2023-01-31T10:18:10;101572.38;;;17.45;33.85
38227;BME280;24026;49.446;8.576;2023-01-31T10:23:34;101591.25;;;17.55;33.48
38227;BME280;24026;49.446;8.576;2023-01-31T10:26:03;101576.03;;;17.29;34.19
38227;BME280;24026;49.446;8.576;2023-01-31T10:28:37;101566.22;;;17.12;34.19
38227;BME280;24026;49.446;8.576;2023-01-31T10:31:31;101545.34;;;16.87;34.46
38227;BME280;24026;49.446;8.576;2023-01-31T10:34:06;101534.25;;;16.78;34.99
38227;BME280;24026;49.446;8.576;2023-01-31T10:39:20;101560.91;;;16.58;35.37
38227;BME280;24026;49.446;8.576;2023-01-31T10:46:54;101502.53;;;16.43;35.44
38227;BME280;24026;49.446;8.576;2023-01-31T10:49:17;101524.81;;;16.43;35.58
38227;BME280;24026;49.446;8.576;2023-01-31T10:51:49;101541.94;;;16.37;35.55
38227;BME280;24026;49.446;8.576;2023-01-31T10:56:54;101518.47;;;16.27;35.47
38227;BME280;24026;49.446;8.576;2023-01-31T10:59:25;101537.00;;;16.29;35.54
38227;BME280;24026;49.446;8.576;2023-01-31T11:01:49;101544.53;;;16.32;35.58
38227;BME280;24026;49.446;8.576;2023-01-31T11:04:41;101546.22;;;16.38;35.41
38227;BME280;24026;49.446;8.576;2023-01-31T11:07:02;101544.41;;;16.44;35.41
38227;BME280;24026;49.446;8.576;2023-01-31T11:09:23;101546.59;;;16.52;35.42
38227;BME280;24026;49.446;8.576;2023-01-31T11:12:04;101544.06;;;16.62;35.35
38227;BME280;24026;49.446;8.576;2023-01-31T11:14:25;101534.50;;;16.77;34.88
38227;BME280;24026;49.446;8.576;2023-01-31T11:16:46;101529.25;;;16.87;35.02
38227;BME280;24026;49.446;8.576;2023-01-31T11:19:44;101510.81;;;16.96;34.68
38227;BME280;24026;49.446;8.576;2023-01-31T11:22:06;101498.28;;;17.12;34.67
38227;BME280;24026;49.446;8.576;2023-01-31T11:24:30;101492.44;;;17.20;34.62
38227;BME280;24026;49.446;8.576;2023-01-31T11:26:58;101492.19;;;17.21;34.41
38227;BME280;24026;49.446;8.576;2023-01-31T11:29:23;101475.84;;;17.33;34.65
38227;BME280;24026;49.446;8.576;2023-01-31T11:31:46;101475.63;;;17.40;34.62
38227;BME280;24026;49.446;8.576;2023-01-31T11:34:37;101470.53;;;17.44;34.35
38227;BME280;24026;49.446;8.576;2023-01-31T11:37:18;101466.03;;;17.54;33.73
38227;BME280;24026;49.446;8.576;2023-01-31T11:39:39;101451.53;;;17.66;33.44
38227;BME280;24026;49.446;8.576;2023-01-31T11:44:25;101464.97;;;17.60;33.84
38227;BME280;24026;49.446;8.576;2023-01-31T11:49:13;101462.50;;;17.49;33.85
38227;BME280;24026;49.446;8.576;2023-01-31T11:51:36;101448.41;;;17.21;34.32
38227;BME280;24026;49.446;8.576;2023-01-31T11:53:57;101441.31;;;17.04;34.69
38227;BME280;24026;49.446;8.576;2023-01-31T11:56:27;101437.34;;;16.80;34.95
38227;BME280;24026;49.446;8.576;2023-01-31T11:59:01;101426.28;;;16.71;35.11
38227;BME280;24026;49.446;8.576;2023-01-31T12:01:25;101411.72;;;16.62;35.43
38227;BME280;24026;49.446;8.576;2023-01-31T12:03:58;101407.03;;;16.47;35.40
38227;BME280;24026;49.446;8.576;2023-01-31T12:06:28;101400.28;;;16.39;35.31
38227;BME280;24026;49.446;8.576;2023-01-31T12:11:52;101413.81;;;16.22;35.79
38227;BME280;24026;49.446;8.576;2023-01-31T12:14:15;101411.78;;;16.35;35.73
38227;BME280;24026;49.446;8.576;2023-01-31T12:16:36;101406.13;;;16.31;35.83
38227;BME280;24026;49.446;8.576;2023-01-31T12:24:10;101377.00;;;16.13;35.88
38227;BME280;24026;49.446;8.576;2023-01-31T12:26:46;101374.09;;;16.19;35.77
38227;BME280;24026;49.446;8.576;2023-01-31T12:37:17;101374.41;;;16.60;35.52
38227;BME280;24026;49.446;8.576;2023-01-31T12:40:02;101373.94;;;16.74;35.23
38227;BME280;24026;49.446;8.576;2023-01-31T12:42:53;101374.94;;;17.00;34.91
38227;BME280;24026;49.446;8.576;2023-01-31T12:50:30;101372.69;;;17.29;34.74
38227;BME280;24026;49.446;8.576;2023-01-31T12:53:06;101382.09;;;17.37;34.59
38227;BME280;24026;49.446;8.576;2023-01-31T12:55:35;101381.06;;;17.48;34.33
38227;BME280;24026;49.446;8.576;2023-01-31T12:58:25;101380.31;;;17.58;34.28
38227;BME280;24026;49.446;8.576;2023-01-31T13:01:01;101373.59;;;17.66;34.52
38227;BME280;24026;49.446;8.576;2023-01-31T13:08:29;101373.59;;;17.66;33.65
38227;BME280;24026;49.446;8.576;2023-01-31T13:10:56;101371.44;;;17.57;33.80
38227;BME280;24026;49.446;8.576;2023-01-31T13:13:30;101371.84;;;17.29;34.10
38227;BME280;24026;49.446;8.576;2023-01-31T13:16:01;101352.47;;;17.16;34.54
38227;BME280;24026;49.446;8.576;2023-01-31T13:18:24;101336.56;;;17.04;34.80
38227;BME280;24026;49.446;8.576;2023-01-31T13:21:05;101327.00;;;16.76;35.00
38227;BME280;24026;49.446;8.576;2023-01-31T13:23:48;101298.53;;;16.75;34.97
38227;BME280;24026;49.446;8.576;2023-01-31T13:26:18;101309.00;;;16.72;34.94
38227;BME280;24026;49.446;8.576;2023-01-31T13:28:48;101315.16;;;16.72;35.11
38227;BME280;24026;49.446;8.576;2023-01-31T13:31:23;101325.31;;;16.65;35.22
38227;BME280;24026;49.446;8.576;2023-01-31T13:33:56;101318.28;;;16.54;35.42
38227;BME280;24026;49.446;8.576;2023-01-31T13:36:40;101306.16;;;16.46;35.49
38227;BME280;24026;49.446;8.576;2023-01-31T13:39:07;101302.66;;;16.45;35.53
38227;BME280;24026;49.446;8.576;2023-01-31T13:41:32;101309.44;;;16.53;35.26
38227;BME280;24026;49.446;8.576;2023-01-31T13:43:54;101308.00;;;16.40;35.41
38227;BME280;24026;49.446;8.576;2023-01-31T13:46:20;101292.69;;;16.36;35.42
38227;BME280;24026;49.446;8.576;2023-01-31T13:48:50;101309.69;;;16.52;35.27
38227;BME280;24026;49.446;8.576;2023-01-31T13:54:06;101318.34;;;16.64;35.09
38227;BME280;24026;49.446;8.576;2023-01-31T13:56:35;101326.22;;;16.76;35.32
38227;BME280;24026;49.446;8.576;2023-01-31T13:58:57;101313.66;;;16.87;35.23
38227;BME280;24026;49.446;8.576;2023-01-31T14:01:21;101309.97;;;16.98;35.33
38227;BME280;24026;49.446;8.576;2023-01-31T14:09:27;101319.47;;;17.26;34.85
38227;BME280;24026;49.446;8.576;2023-01-31T14:11:48;101323.00;;;17.42;34.79